createdAt,value
2022-12-04T00:01:14.003Z,7.10
2022-12-04T00:03:40.970Z,7.00
2022-12-04T00:06:11.471Z,6.90
2022-12-04T00:08:39.236Z,7.00
2022-12-04T00:11:08.805Z,7.10
2022-12-04T00:13:36.813Z,7.00
2022-12-04T00:16:13.001Z,7.00
2022-12-04T00:18:40.393Z,7.00
2022-12-04T00:21:10.472Z,7.10
2022-12-04T00:23:38.990Z,7.00
2022-12-04T00:26:17.800Z,7.00
2022-12-04T00:28:45.318Z,8.70
2022-12-04T00:31:15.866Z,7.00
2022-12-04T00:33:43.382Z,6.80
2022-12-04T00:36:12.787Z,7.00
2022-12-04T00:38:40.859Z,7.00
2022-12-04T00:41:12.648Z,6.90
2022-12-04T00:43:40.312Z,7.10
2022-12-04T00:46:08.091Z,6.90
2022-12-04T00:48:35.235Z,6.90
2022-12-04T00:51:04.453Z,6.90
2022-12-04T00:53:31.788Z,6.90
2022-12-04T00:55:59.025Z,7.00
2022-12-04T00:58:25.863Z,7.10
2022-12-04T01:01:05.513Z,7.00
2022-12-04T01:03:32.509Z,7.00
2022-12-04T01:06:00.016Z,7.10
2022-12-04T01:08:27.313Z,7.00
2022-12-04T01:10:54.238Z,6.90
2022-12-04T01:13:22.424Z,6.90
2022-12-04T01:15:49.705Z,6.90
2022-12-04T01:18:17.900Z,6.90
2022-12-04T01:20:48.887Z,6.90
2022-12-04T01:23:15.911Z,6.90
2022-12-04T01:25:59.451Z,6.90
2022-12-04T01:28:26.814Z,6.80
2022-12-04T01:31:21.268Z,6.80
2022-12-04T01:33:49.397Z,6.90
2022-12-04T01:36:22.767Z,6.90
2022-12-04T01:38:49.696Z,7.00
2022-12-04T01:41:19.596Z,7.00
2022-12-04T01:44:06.343Z,7.00
2022-12-04T01:46:33.244Z,7.10
2022-12-04T01:49:00.428Z,7.10
2022-12-04T01:51:33.369Z,7.00
2022-12-04T01:54:05.210Z,7.00
2022-12-04T01:57:06.504Z,7.00
2022-12-04T01:59:38.474Z,7.20
2022-12-04T02:02:09.763Z,7.10
2022-12-04T02:04:38.734Z,7.20
2022-12-04T02:07:06.048Z,7.20
2022-12-04T02:09:34.354Z,7.20
2022-12-04T02:12:13.194Z,7.10
2022-12-04T02:14:39.999Z,7.10
2022-12-04T02:17:15.939Z,7.20
2022-12-04T02:20:13.695Z,7.20
2022-12-04T02:23:05.614Z,7.20
2022-12-04T02:25:55.923Z,7.30
2022-12-04T02:28:41.385Z,7.40
2022-12-04T02:31:18.433Z,7.30
2022-12-04T02:34:04.066Z,7.30
2022-12-04T02:36:36.514Z,7.40
2022-12-04T02:39:12.367Z,7.30
2022-12-04T02:41:56.072Z,7.20
2022-12-04T02:44:30.348Z,7.20
2022-12-04T02:47:07.192Z,7.30
2022-12-04T02:49:45.575Z,7.20
2022-12-04T02:52:17.994Z,7.10
2022-12-04T02:54:56.102Z,7.10
2022-12-04T02:57:28.741Z,7.10
2022-12-04T02:59:58.132Z,7.10
2022-12-04T03:02:32.078Z,7.20
2022-12-04T03:05:03.583Z,7.10
2022-12-04T03:08:02.833Z,7.10
2022-12-04T03:10:38.113Z,7.20
2022-12-04T03:13:16.137Z,7.20
2022-12-04T03:15:45.575Z,7.00
2022-12-04T03:18:18.470Z,7.10
2022-12-04T03:20:50.187Z,7.10
2022-12-04T03:23:26.039Z,7.10
2022-12-04T03:26:12.153Z,7.20
2022-12-04T03:29:11.909Z,7.10
2022-12-04T03:31:47.205Z,7.10
2022-12-04T03:34:20.113Z,7.10
2022-12-04T03:36:53.229Z,7.10
2022-12-04T03:39:26.476Z,7.10
2022-12-04T03:42:08.440Z,7.10
2022-12-04T03:44:49.241Z,7.20
2022-12-04T03:47:26.161Z,7.30
2022-12-04T03:50:02.020Z,7.20
2022-12-04T03:52:53.471Z,7.30
2022-12-04T03:55:29.028Z,7.10
2022-12-04T03:58:02.234Z,7.20
2022-12-04T04:00:30.034Z,7.10
2022-12-04T04:03:07.573Z,7.10
2022-12-04T04:05:38.260Z,7.00
2022-12-04T04:08:26.386Z,7.00
2022-12-04T04:11:25.758Z,7.00
2022-12-04T04:14:23.721Z,7.10
2022-12-04T04:17:18.011Z,7.20
2022-12-04T04:20:08.937Z,7.10
2022-12-04T04:22:56.296Z,7.10
2022-12-04T04:25:26.887Z,7.20
2022-12-04T04:27:58.841Z,7.10
2022-12-04T04:30:29.475Z,7.00
2022-12-04T04:33:16.378Z,7.10
2022-12-04T04:36:02.659Z,7.10
2022-12-04T04:38:45.718Z,7.20
2022-12-04T04:41:22.015Z,7.10
2022-12-04T04:44:33.799Z,7.10
2022-12-04T04:47:06.128Z,7.20
2022-12-04T04:49:35.937Z,7.20
2022-12-04T04:52:03.467Z,7.60
2022-12-04T04:54:32.190Z,7.20
2022-12-04T04:56:59.285Z,7.20
2022-12-04T04:59:26.132Z,7.30
2022-12-04T05:01:53.022Z,7.10
2022-12-04T05:04:19.992Z,7.20
2022-12-04T05:06:48.940Z,7.20
2022-12-04T05:09:15.853Z,7.20
2022-12-04T05:11:43.085Z,7.30
2022-12-04T05:14:10.039Z,7.20
2022-12-04T05:16:38.462Z,7.20
2022-12-04T05:19:23.794Z,7.20
2022-12-04T05:21:51.043Z,7.20
2022-12-04T05:24:17.826Z,7.30
2022-12-04T05:26:44.690Z,7.30
2022-12-04T05:29:11.497Z,7.30
2022-12-04T05:31:38.888Z,7.30
2022-12-04T05:34:05.765Z,7.30
2022-12-04T05:36:32.493Z,7.20
2022-12-04T05:38:59.702Z,7.30
2022-12-04T05:41:26.484Z,7.10
2022-12-04T05:43:53.292Z,7.10
2022-12-04T05:46:20.113Z,7.10
2022-12-04T05:48:46.977Z,7.10
2022-12-04T05:51:13.942Z,7.20
2022-12-04T05:53:40.909Z,7.30
2022-12-04T05:56:08.422Z,7.10
2022-12-04T05:58:36.705Z,7.10
2022-12-04T06:01:16.849Z,7.20
2022-12-04T06:03:44.430Z,7.20
2022-12-04T06:06:21.469Z,7.20
2022-12-04T06:08:52.959Z,7.30
2022-12-04T06:11:23.747Z,7.20
2022-12-04T06:13:50.814Z,7.20
2022-12-04T06:16:26.630Z,7.40
2022-12-04T06:18:55.915Z,7.20
2022-12-04T06:21:24.188Z,7.10
2022-12-04T06:23:52.312Z,7.00
2022-12-04T06:26:19.851Z,7.00
2022-12-04T06:28:47.005Z,7.10
2022-12-04T06:31:16.024Z,7.20
2022-12-04T06:33:43.203Z,7.30
2022-12-04T06:36:15.767Z,7.10
2022-12-04T06:38:43.093Z,7.10
2022-12-04T06:41:13.189Z,7.10
2022-12-04T06:43:40.613Z,7.10
2022-12-04T06:46:16.315Z,7.00
2022-12-04T06:48:43.472Z,7.10
2022-12-04T06:51:22.198Z,7.10
2022-12-04T06:53:49.598Z,7.10
2022-12-04T06:56:18.780Z,7.10
2022-12-04T06:58:46.694Z,7.00
2022-12-04T07:01:15.648Z,7.00
2022-12-04T07:03:47.814Z,7.00
2022-12-04T07:06:22.415Z,7.00
2022-12-04T07:08:55.310Z,7.10
2022-12-04T07:11:22.553Z,7.20
2022-12-04T07:13:50.360Z,7.20
2022-12-04T07:16:20.220Z,7.20
2022-12-04T07:18:50.400Z,7.30
2022-12-04T07:21:19.142Z,7.20
2022-12-04T07:23:50.161Z,7.20
2022-12-04T07:26:17.456Z,7.20
2022-12-04T07:28:47.139Z,7.20
2022-12-04T07:31:19.753Z,7.30
2022-12-04T07:33:48.000Z,7.30
2022-12-04T07:36:19.500Z,7.30
2022-12-04T07:38:46.934Z,7.40
2022-12-04T07:41:14.679Z,7.40
2022-12-04T07:43:41.918Z,7.40
2022-12-04T07:46:12.606Z,7.50
2022-12-04T07:48:39.935Z,7.40
2022-12-04T07:51:09.361Z,7.40
2022-12-04T07:53:37.053Z,7.50
2022-12-04T07:56:05.685Z,7.40
2022-12-04T07:58:33.537Z,7.30
2022-12-04T08:01:09.645Z,7.50
2022-12-04T08:03:40.845Z,7.60
2022-12-04T08:08:57.538Z,7.60
2022-12-04T08:11:26.439Z,7.50
2022-12-04T08:13:58.824Z,7.40
2022-12-04T08:16:27.112Z,7.50
2022-12-04T08:18:54.356Z,7.60
2022-12-04T08:21:24.097Z,7.70
2022-12-04T08:23:52.806Z,7.80
2022-12-04T08:26:20.908Z,7.80
2022-12-04T08:28:47.856Z,7.80
2022-12-04T08:31:20.997Z,7.80
2022-12-04T08:33:49.296Z,7.80
2022-12-04T08:36:19.717Z,7.80
2022-12-04T08:38:47.418Z,7.70
2022-12-04T08:41:16.669Z,7.80
2022-12-04T08:43:43.646Z,7.80
2022-12-04T08:46:13.617Z,7.90
2022-12-04T08:48:40.899Z,8.00
2022-12-04T08:51:17.325Z,8.00
2022-12-04T08:53:44.245Z,8.00
2022-12-04T08:56:11.245Z,7.90
2022-12-04T08:58:38.990Z,7.90
2022-12-04T09:01:08.189Z,7.90
2022-12-04T09:03:35.726Z,7.90
2022-12-04T09:06:04.695Z,7.80
2022-12-04T09:08:32.147Z,7.80
2022-12-04T09:11:15.987Z,8.10
2022-12-04T09:13:43.665Z,7.80
2022-12-04T09:16:14.522Z,7.90
2022-12-04T09:18:41.440Z,8.10
2022-12-04T09:21:12.076Z,8.00
2022-12-04T09:23:39.872Z,8.40
2022-12-04T09:26:18.969Z,8.10
2022-12-04T09:28:47.047Z,8.20
2022-12-04T09:31:14.423Z,8.10
2022-12-04T09:33:41.348Z,8.10
2022-12-04T09:36:08.307Z,8.30
2022-12-04T09:38:35.221Z,8.00
2022-12-04T09:41:17.400Z,8.00
2022-12-04T09:43:51.480Z,8.10
2022-12-04T09:46:34.228Z,8.20
2022-12-04T09:49:07.020Z,8.30
2022-12-04T09:51:38.482Z,8.30
2022-12-04T09:54:33.179Z,8.20
2022-12-04T09:57:31.217Z,8.20
2022-12-04T09:59:58.722Z,8.20
2022-12-04T10:02:29.088Z,8.10
2022-12-04T10:04:56.749Z,8.10
2022-12-04T10:07:30.712Z,8.10
2022-12-04T10:10:03.335Z,8.10
2022-12-04T10:12:45.615Z,8.20
2022-12-04T10:15:41.691Z,8.20
2022-12-04T10:18:35.515Z,8.20
2022-12-04T10:21:11.419Z,8.10
2022-12-04T10:23:59.133Z,8.10
2022-12-04T10:26:33.473Z,8.10
2022-12-04T10:29:04.016Z,8.00
2022-12-04T10:31:34.308Z,8.10
2022-12-04T10:34:23.661Z,9.30
2022-12-04T10:36:55.433Z,8.10
2022-12-04T10:39:45.590Z,8.00
2022-12-04T10:42:40.943Z,8.10
2022-12-04T10:45:08.273Z,8.00
2022-12-04T10:47:35.499Z,8.00
2022-12-04T10:50:16.079Z,7.90
2022-12-04T10:52:43.046Z,7.80
2022-12-04T10:55:10.176Z,7.80
2022-12-04T10:57:46.285Z,7.80
2022-12-04T11:00:26.211Z,7.70
2022-12-04T11:02:55.313Z,7.70
2022-12-04T11:05:47.852Z,7.70
2022-12-04T11:08:24.551Z,7.70
2022-12-04T11:11:01.470Z,7.80
2022-12-04T11:13:29.172Z,7.80
2022-12-04T11:15:58.620Z,7.90
2022-12-04T11:18:30.529Z,8.00
2022-12-04T11:21:05.250Z,8.00
2022-12-04T11:26:08.698Z,8.10
2022-12-04T11:28:42.405Z,8.10
2022-12-04T11:31:16.747Z,7.90
2022-12-04T11:33:52.761Z,6.70
2022-12-04T11:36:28.237Z,6.80
2022-12-04T11:39:16.432Z,7.40
2022-12-04T11:41:43.903Z,7.00
2022-12-04T11:44:27.322Z,8.30
2022-12-04T11:46:56.762Z,8.30
2022-12-04T11:49:26.220Z,8.30
2022-12-04T11:52:05.373Z,8.30
2022-12-04T11:54:53.969Z,8.20
2022-12-04T11:57:31.610Z,8.20
2022-12-04T12:00:15.118Z,8.10
2022-12-04T12:02:56.948Z,8.10
2022-12-04T12:05:43.889Z,8.30
2022-12-04T12:08:16.862Z,8.40
2022-12-04T12:11:07.099Z,8.30
2022-12-04T12:13:37.612Z,8.30
2022-12-04T12:16:29.158Z,8.30
2022-12-04T12:21:54.100Z,8.30
2022-12-04T12:32:49.018Z,8.50
2022-12-04T12:37:54.525Z,8.30
2022-12-04T12:40:48.680Z,8.40
2022-12-04T12:46:34.208Z,8.40
2022-12-04T12:49:07.858Z,6.80
2022-12-04T13:00:07.726Z,8.50
2022-12-04T13:03:02.864Z,8.40
2022-12-04T13:05:41.090Z,6.80
2022-12-04T13:08:21.486Z,8.20
2022-12-04T13:11:10.521Z,8.60
2022-12-04T13:13:52.948Z,8.60
2022-12-04T13:16:40.228Z,8.50
2022-12-04T13:19:24.825Z,8.50
2022-12-04T13:22:15.743Z,8.50
2022-12-04T13:24:58.119Z,8.50
2022-12-04T13:27:53.089Z,8.50
2022-12-04T13:30:23.352Z,8.50
2022-12-04T13:33:15.929Z,8.50
2022-12-04T13:36:07.050Z,8.50
2022-12-04T13:38:55.098Z,8.70
2022-12-04T13:41:27.155Z,8.90
2022-12-04T13:43:55.204Z,8.70
2022-12-04T13:46:54.624Z,8.70
2022-12-04T13:49:37.975Z,8.80
2022-12-04T13:52:21.010Z,8.80
2022-12-04T13:54:59.076Z,8.80
2022-12-04T13:57:28.257Z,8.70
2022-12-04T14:00:23.649Z,8.80
2022-12-04T14:02:53.997Z,8.80
2022-12-04T14:05:31.593Z,8.90
2022-12-04T14:08:07.538Z,8.80
2022-12-04T14:10:38.661Z,8.80
2022-12-04T14:13:14.696Z,9.00
2022-12-04T14:15:42.042Z,8.80
2022-12-04T14:18:12.423Z,8.80
2022-12-04T14:20:41.635Z,8.80
2022-12-04T14:23:26.045Z,8.80
2022-12-04T14:25:57.940Z,8.80
2022-12-04T14:28:26.832Z,8.90
2022-12-04T14:31:08.540Z,8.80
2022-12-04T14:33:44.291Z,8.90
2022-12-04T14:36:21.098Z,8.90
2022-12-04T14:38:50.715Z,8.80
2022-12-04T14:41:26.097Z,8.80
2022-12-04T14:43:53.681Z,8.80
2022-12-04T14:46:37.160Z,8.80
2022-12-04T14:49:36.995Z,8.70
2022-12-04T14:52:08.662Z,8.70
2022-12-04T14:54:49.638Z,8.60
2022-12-04T14:57:31.231Z,8.60
2022-12-04T14:59:58.395Z,8.60
2022-12-04T15:02:33.541Z,8.50
2022-12-04T15:05:02.113Z,8.40
2022-12-04T15:07:31.664Z,8.40
2022-12-04T15:10:19.830Z,8.40
2022-12-04T15:12:54.426Z,8.50
2022-12-04T15:15:28.278Z,8.50
2022-12-04T15:18:01.443Z,8.40
2022-12-04T15:20:39.229Z,8.30
2022-12-04T15:23:06.504Z,8.30
2022-12-04T15:25:41.540Z,8.30
2022-12-04T15:28:24.678Z,8.30
2022-12-04T15:30:52.782Z,8.30
2022-12-04T15:33:23.842Z,8.30
2022-12-04T15:35:55.359Z,8.30
2022-12-04T15:38:23.110Z,8.30
2022-12-04T15:40:56.027Z,8.30
2022-12-04T15:43:38.973Z,8.20
2022-12-04T15:46:24.957Z,8.10
2022-12-04T15:48:51.819Z,8.10
2022-12-04T15:51:21.383Z,8.10
2022-12-04T15:53:48.284Z,8.10
2022-12-04T15:56:20.479Z,8.10
2022-12-04T15:58:59.814Z,8.10
2022-12-04T16:01:27.337Z,8.10
2022-12-04T16:03:56.174Z,8.00
2022-12-04T16:06:25.008Z,8.00
2022-12-04T16:08:57.637Z,8.00
2022-12-04T16:11:31.013Z,8.00
2022-12-04T16:14:05.648Z,8.00
2022-12-04T16:16:32.586Z,8.00
2022-12-04T16:19:07.881Z,8.00
2022-12-04T16:21:35.955Z,8.10
2022-12-04T16:24:07.497Z,8.00
2022-12-04T16:26:34.393Z,8.10
2022-12-04T16:29:01.345Z,8.00
2022-12-04T16:31:28.253Z,8.00
2022-12-04T16:33:55.118Z,8.00
2022-12-04T16:36:21.876Z,8.00
2022-12-04T16:38:48.708Z,8.00
2022-12-04T16:41:17.548Z,8.00
2022-12-04T16:43:44.859Z,8.00
2022-12-04T16:46:16.969Z,8.10
2022-12-04T16:48:44.317Z,8.10
2022-12-04T16:51:24.859Z,6.80
2022-12-04T16:53:52.958Z,8.10
2022-12-04T16:56:20.514Z,8.10
2022-12-04T16:58:47.909Z,8.10
2022-12-04T17:01:25.782Z,10.00
2022-12-04T17:03:52.981Z,8.00
2022-12-04T17:06:20.531Z,8.00
2022-12-04T17:08:49.085Z,8.10
2022-12-04T17:11:17.641Z,8.20
2022-12-04T17:13:45.154Z,8.10
2022-12-04T17:16:15.035Z,8.10
2022-12-04T17:18:43.479Z,8.10
2022-12-04T17:21:12.353Z,8.10
2022-12-04T17:23:40.176Z,8.00
2022-12-04T17:26:09.439Z,8.00
2022-12-04T17:28:36.914Z,8.10
2022-12-04T17:31:06.265Z,8.20
2022-12-04T17:33:33.275Z,8.10
2022-12-04T17:36:03.531Z,7.90
2022-12-04T17:38:30.548Z,7.90
2022-12-04T17:41:02.690Z,7.80
2022-12-04T17:43:31.537Z,7.80
2022-12-04T17:45:59.189Z,7.70
2022-12-04T17:48:27.573Z,7.60
2022-12-04T17:51:10.654Z,7.50
2022-12-04T17:53:38.290Z,7.50
2022-12-04T17:56:08.738Z,9.20
2022-12-04T17:58:36.476Z,7.60
2022-12-04T18:01:09.313Z,7.70
2022-12-04T18:03:37.681Z,7.60
2022-12-04T18:06:18.055Z,7.60
2022-12-04T18:08:50.001Z,7.60
2022-12-04T18:11:20.780Z,6.50
2022-12-04T18:13:56.774Z,7.60
2022-12-04T18:16:24.270Z,7.50
2022-12-04T18:18:54.086Z,7.50
2022-12-04T18:21:21.906Z,7.40
2022-12-04T18:23:49.276Z,7.50
2022-12-04T18:26:24.705Z,7.50
2022-12-04T18:28:51.674Z,7.40
2022-12-04T18:31:19.536Z,7.40
2022-12-04T18:33:46.984Z,7.50
2022-12-04T18:36:26.033Z,7.60
2022-12-04T18:38:58.324Z,7.80
2022-12-04T18:41:26.511Z,7.90
2022-12-04T18:43:53.668Z,8.00
2022-12-04T18:46:21.513Z,8.10
2022-12-04T18:48:49.768Z,8.10
2022-12-04T18:51:21.194Z,8.10
2022-12-04T18:53:49.504Z,8.10
2022-12-04T18:56:17.528Z,8.10
2022-12-04T18:58:46.508Z,8.10
2022-12-04T19:01:20.256Z,8.00
2022-12-04T19:03:48.033Z,8.10
2022-12-04T19:06:15.479Z,8.10
2022-12-04T19:08:43.657Z,8.20
2022-12-04T19:11:15.886Z,8.20
2022-12-04T19:13:43.269Z,8.10
2022-12-04T19:16:15.008Z,8.10
2022-12-04T19:18:45.289Z,8.20
2022-12-04T19:21:13.485Z,8.10
2022-12-04T19:23:41.174Z,8.20
2022-12-04T19:26:08.633Z,8.20
2022-12-04T19:28:36.588Z,8.20
2022-12-04T19:31:04.331Z,8.30
2022-12-04T19:33:31.182Z,8.30
2022-12-04T19:36:03.893Z,8.30
2022-12-04T19:38:31.884Z,8.40
2022-12-04T19:41:10.375Z,8.40
2022-12-04T19:43:39.290Z,8.40
2022-12-04T19:46:08.322Z,6.30
2022-12-04T19:48:37.947Z,8.50
2022-12-04T19:51:12.361Z,8.40
2022-12-04T19:53:42.841Z,8.40
2022-12-04T19:56:24.569Z,8.50
2022-12-04T19:58:53.314Z,8.30
2022-12-04T20:01:26.738Z,8.20
2022-12-04T20:03:54.954Z,9.20
2022-12-04T20:06:28.550Z,8.10
2022-12-04T20:09:10.146Z,8.10
2022-12-04T20:11:41.200Z,9.40
2022-12-04T20:14:11.901Z,8.30
2022-12-04T20:16:40.040Z,8.30
2022-12-04T20:19:13.859Z,8.30
2022-12-04T20:21:40.990Z,8.40
2022-12-04T20:24:08.244Z,8.40
2022-12-04T20:26:38.526Z,8.40
2022-12-04T20:29:06.888Z,8.50
2022-12-04T20:31:37.428Z,8.40
2022-12-04T20:34:07.336Z,8.50
2022-12-04T20:36:40.223Z,9.10
2022-12-04T20:39:07.686Z,8.40
2022-12-04T20:41:35.610Z,8.50
2022-12-04T20:44:05.109Z,8.50
2022-12-04T20:46:35.241Z,8.50
2022-12-04T20:49:05.064Z,6.70
2022-12-04T20:51:34.805Z,8.50
2022-12-04T20:54:02.448Z,7.10
2022-12-04T20:56:32.069Z,8.20
2022-12-04T20:59:01.457Z,8.20
2022-12-04T21:01:28.944Z,8.10
2022-12-04T21:03:57.813Z,8.20
2022-12-04T21:06:34.442Z,8.00
2022-12-04T21:09:08.087Z,8.00
2022-12-04T21:11:41.175Z,8.00
2022-12-04T21:14:35.759Z,8.00
2022-12-04T21:17:04.121Z,7.90
2022-12-04T21:19:32.271Z,7.90
2022-12-04T21:21:59.186Z,8.00
2022-12-04T21:24:28.099Z,8.10
2022-12-04T21:26:56.028Z,8.10
2022-12-04T21:29:23.423Z,8.10
2022-12-04T21:31:50.208Z,8.20
2022-12-04T21:34:18.045Z,8.20
2022-12-04T21:36:46.461Z,8.20
2022-12-04T21:39:14.840Z,8.30
2022-12-04T21:42:00.783Z,8.30
2022-12-04T21:44:27.966Z,8.10
2022-12-04T21:46:55.143Z,8.10
2022-12-04T21:49:22.383Z,8.00
2022-12-04T21:51:57.318Z,7.80
2022-12-04T21:54:25.461Z,7.80
2022-12-04T21:56:52.365Z,7.80
2022-12-04T21:59:19.202Z,8.00
2022-12-04T22:01:46.314Z,8.00
2022-12-04T22:04:13.616Z,8.00
2022-12-04T22:06:40.703Z,8.00
2022-12-04T22:09:09.332Z,8.10
2022-12-04T22:11:36.920Z,8.10
2022-12-04T22:14:04.317Z,8.10
2022-12-04T22:16:33.686Z,8.20
2022-12-04T22:19:02.668Z,8.10
2022-12-04T22:21:30.027Z,8.20
2022-12-04T22:24:01.998Z,8.10
2022-12-04T22:26:29.876Z,8.20
2022-12-04T22:28:57.688Z,8.10
2022-12-04T22:31:27.348Z,8.00
2022-12-04T22:33:56.286Z,8.00
2022-12-04T22:36:30.400Z,8.10
2022-12-04T22:39:12.914Z,8.10
2022-12-04T22:41:40.215Z,8.00
2022-12-04T22:44:07.104Z,7.90
2022-12-04T22:46:34.712Z,7.90
2022-12-04T22:49:01.613Z,8.00
2022-12-04T22:51:28.607Z,8.10
2022-12-04T22:53:58.135Z,8.10
2022-12-04T22:56:29.135Z,8.30
2022-12-04T22:58:57.905Z,8.30
2022-12-04T23:01:30.517Z,8.20
2022-12-04T23:03:57.762Z,7.90
2022-12-04T23:06:26.585Z,8.20
2022-12-04T23:08:58.374Z,8.20
2022-12-04T23:11:26.430Z,8.20
2022-12-04T23:13:56.275Z,8.20
2022-12-04T23:16:24.250Z,8.20
2022-12-04T23:18:51.442Z,8.20
2022-12-04T23:21:19.912Z,8.20
2022-12-04T23:23:48.069Z,8.10
2022-12-04T23:26:17.989Z,8.10
2022-12-04T23:28:45.236Z,8.00
2022-12-04T23:31:12.663Z,8.10
2022-12-04T23:33:40.977Z,8.20
2022-12-04T23:36:09.709Z,8.20
2022-12-04T23:38:38.279Z,8.30
2022-12-04T23:41:13.530Z,8.30
2022-12-04T23:43:41.093Z,8.30
2022-12-04T23:46:11.281Z,8.30
2022-12-04T23:48:40.219Z,8.30
2022-12-04T23:51:07.678Z,8.90
2022-12-04T23:53:35.614Z,8.30
2022-12-04T23:56:12.345Z,8.30
2022-12-04T23:58:40.118Z,8.30
